createdAt,value
2023-04-16T00:02:01.120Z,5.75
2023-04-16T00:04:28.285Z,5.80
2023-04-16T00:06:55.644Z,5.55
2023-04-16T00:09:22.651Z,7.40
2023-04-16T00:11:49.523Z,6.18
2023-04-16T00:14:16.420Z,4.57
2023-04-16T00:16:43.282Z,5.20
2023-04-16T00:19:10.345Z,4.18
2023-04-16T00:21:37.610Z,4.50
2023-04-16T00:24:04.488Z,5.20
2023-04-16T00:26:31.827Z,5.18
2023-04-16T00:28:58.786Z,5.75
2023-04-16T00:31:29.697Z,6.00
2023-04-16T00:33:56.854Z,7.60
2023-04-16T00:36:24.597Z,6.72
2023-04-16T00:38:51.649Z,6.25
2023-04-16T00:41:18.593Z,5.80
2023-04-16T00:43:46.416Z,5.50
2023-04-16T00:46:13.438Z,4.65
2023-04-16T00:48:41.160Z,4.53
2023-04-16T00:51:08.632Z,5.50
2023-04-16T00:53:35.711Z,6.72
2023-04-16T00:56:03.765Z,4.90
2023-04-16T00:58:30.912Z,4.93
2023-04-16T01:00:57.989Z,5.55
2023-04-16T01:03:25.872Z,6.00
2023-04-16T01:05:52.923Z,5.15
2023-04-16T01:08:21.808Z,6.45
2023-04-16T01:10:48.703Z,5.88
2023-04-16T01:13:15.627Z,5.90
2023-04-16T01:15:42.547Z,6.40
2023-04-16T01:18:16.823Z,6.07
2023-04-16T01:20:44.224Z,5.53
2023-04-16T01:23:11.932Z,6.07
2023-04-16T01:25:39.346Z,5.45
2023-04-16T01:28:06.658Z,5.40
2023-04-16T01:30:33.537Z,4.97
2023-04-16T01:33:01.757Z,4.43
2023-04-16T01:35:28.871Z,4.88
2023-04-16T01:37:56.062Z,5.22
2023-04-16T01:40:22.973Z,5.20
2023-04-16T01:42:50.017Z,5.18
2023-04-16T01:45:16.846Z,4.28
2023-04-16T01:47:44.018Z,5.05
2023-04-16T01:50:11.058Z,4.82
2023-04-16T01:52:38.137Z,6.53
2023-04-16T01:55:05.284Z,4.85
2023-04-16T01:57:32.238Z,4.30
2023-04-16T01:59:59.115Z,5.00
2023-04-16T02:02:28.535Z,4.05
2023-04-16T02:07:22.226Z,4.32
2023-04-16T02:09:51.025Z,4.20
2023-04-16T02:12:18.122Z,4.78
2023-04-16T02:14:45.130Z,4.30
2023-04-16T02:17:12.351Z,5.18
2023-04-16T02:19:39.425Z,4.93
2023-04-16T02:22:07.214Z,3.88
2023-04-16T02:24:34.173Z,5.30
2023-04-16T02:27:01.792Z,5.30
2023-04-16T02:29:28.692Z,4.30
2023-04-16T02:31:55.597Z,5.18
2023-04-16T02:34:22.798Z,6.85
2023-04-16T02:36:49.700Z,4.32
2023-04-16T02:39:16.989Z,5.00
2023-04-16T02:41:43.960Z,4.90
2023-04-16T02:44:10.896Z,4.97
2023-04-16T02:46:38.064Z,5.50
2023-04-16T02:49:05.032Z,3.72
2023-04-16T02:51:33.637Z,5.63
2023-04-16T02:54:01.212Z,6.63
2023-04-16T02:56:28.057Z,4.75
2023-04-16T02:58:55.098Z,5.15
2023-04-16T03:01:21.938Z,6.95
2023-04-16T03:03:48.938Z,5.93
2023-04-16T03:06:15.895Z,5.82
2023-04-16T03:08:42.976Z,5.40
2023-04-16T03:11:10.014Z,6.22
2023-04-16T03:13:36.912Z,7.18
2023-04-16T03:16:03.915Z,6.72
2023-04-16T03:18:30.873Z,7.05
2023-04-16T03:20:57.886Z,7.03
2023-04-16T03:23:24.746Z,6.03
2023-04-16T03:25:51.577Z,7.20
2023-04-16T03:28:18.518Z,7.10
2023-04-16T03:30:52.075Z,6.55
2023-04-16T03:33:19.886Z,6.65
2023-04-16T03:35:46.917Z,5.93
2023-04-16T03:38:13.867Z,6.22
2023-04-16T03:40:41.451Z,5.90
2023-04-16T03:43:08.333Z,5.45
2023-04-16T03:45:35.361Z,8.05
2023-04-16T03:48:02.278Z,5.88
2023-04-16T03:50:29.261Z,5.60
2023-04-16T03:52:56.181Z,5.47
2023-04-16T03:55:23.036Z,6.32
2023-04-16T03:57:49.988Z,5.63
2023-04-16T04:00:16.935Z,6.47
2023-04-16T04:02:44.110Z,7.05
2023-04-16T04:05:11.227Z,6.97
2023-04-16T04:07:38.170Z,6.10
2023-04-16T04:10:05.639Z,6.78
2023-04-16T04:12:32.584Z,8.60
2023-04-16T04:14:59.458Z,7.32
2023-04-16T04:17:26.424Z,6.88
2023-04-16T04:20:01.312Z,6.90
2023-04-16T04:22:29.148Z,7.60
2023-04-16T04:24:56.108Z,7.60
2023-04-16T04:27:23.001Z,8.02
2023-04-16T04:29:50.003Z,8.20
2023-04-16T04:32:16.933Z,8.57
2023-04-16T04:34:43.846Z,9.05
2023-04-16T04:37:10.691Z,9.25
2023-04-16T04:39:37.558Z,8.52
2023-04-16T04:42:04.474Z,8.75
2023-04-16T04:44:31.507Z,9.35
2023-04-16T04:46:58.515Z,9.18
2023-04-16T04:49:25.394Z,9.88
2023-04-16T04:51:52.351Z,9.02
2023-04-16T04:54:19.184Z,10.05
2023-04-16T04:56:46.840Z,9.50
2023-04-16T04:59:13.743Z,9.40
2023-04-16T05:01:41.456Z,9.32
2023-04-16T05:04:08.513Z,8.80
2023-04-16T05:06:35.702Z,8.85
2023-04-16T05:09:02.871Z,9.73
2023-04-16T05:11:30.037Z,9.60
2023-04-16T05:13:57.205Z,8.43
2023-04-16T05:16:24.340Z,9.05
2023-04-16T05:18:51.314Z,9.40
2023-04-16T05:21:18.270Z,9.30
2023-04-16T05:23:45.102Z,8.95
2023-04-16T05:26:12.000Z,9.38
2023-04-16T05:28:38.953Z,9.45
2023-04-16T05:31:05.786Z,9.93
2023-04-16T05:33:32.852Z,8.55
2023-04-16T05:35:59.825Z,7.45
2023-04-16T05:38:26.674Z,8.30
2023-04-16T05:40:53.597Z,9.00
2023-04-16T05:43:20.648Z,8.32
2023-04-16T05:45:47.484Z,9.05
2023-04-16T05:48:14.821Z,8.77
2023-04-16T05:50:41.723Z,9.02
2023-04-16T05:53:09.336Z,9.25
2023-04-16T05:55:37.163Z,9.68
2023-04-16T05:58:07.024Z,9.07
2023-04-16T06:00:33.859Z,9.55
2023-04-16T06:03:01.558Z,10.68
2023-04-16T06:05:29.411Z,9.30
2023-04-16T06:07:56.677Z,10.65
2023-04-16T06:10:23.686Z,8.95
2023-04-16T06:12:50.621Z,10.63
2023-04-16T06:15:17.614Z,8.85
2023-04-16T06:17:44.619Z,9.88
2023-04-16T06:20:14.610Z,9.50
2023-04-16T06:22:41.406Z,11.52
2023-04-16T06:25:09.639Z,8.75
2023-04-16T06:27:36.823Z,9.90
2023-04-16T06:30:03.863Z,9.52
2023-04-16T06:32:30.949Z,9.85
2023-04-16T06:34:59.075Z,11.70
2023-04-16T06:37:26.018Z,10.68
2023-04-16T06:39:53.025Z,10.93
2023-04-16T06:42:20.479Z,10.32
2023-04-16T06:44:47.965Z,9.90
2023-04-16T06:47:14.857Z,11.15
2023-04-16T06:49:41.792Z,10.57
2023-04-16T06:52:08.799Z,9.63
2023-04-16T06:54:36.137Z,9.35
2023-04-16T06:57:03.104Z,10.25
2023-04-16T06:59:30.085Z,10.02
2023-04-16T07:01:57.255Z,9.77
2023-04-16T07:04:24.436Z,12.20
2023-04-16T07:06:51.560Z,9.77
2023-04-16T07:09:18.544Z,10.40
2023-04-16T07:11:45.525Z,9.48
2023-04-16T07:14:12.493Z,9.70
2023-04-16T07:16:39.488Z,9.57
2023-04-16T07:19:06.456Z,9.93
2023-04-16T07:21:33.362Z,10.10
2023-04-16T07:24:01.123Z,10.38
2023-04-16T07:26:28.078Z,10.65
2023-04-16T07:28:54.909Z,9.93
2023-04-16T07:31:22.177Z,10.15
2023-04-16T07:33:49.165Z,11.52
2023-04-16T07:36:16.049Z,9.55
2023-04-16T07:38:42.882Z,9.52
2023-04-16T07:41:09.796Z,10.82
2023-04-16T07:43:36.854Z,10.70
2023-04-16T07:46:03.798Z,10.65
2023-04-16T07:48:30.847Z,8.75
2023-04-16T07:50:58.040Z,9.30
2023-04-16T07:53:24.892Z,9.68
2023-04-16T07:55:51.735Z,9.45
2023-04-16T07:58:18.624Z,8.30
2023-04-16T08:00:46.083Z,10.35
2023-04-16T08:03:13.057Z,10.68
2023-04-16T08:05:40.302Z,9.68
2023-04-16T08:08:07.205Z,8.60
2023-04-16T08:10:34.269Z,9.02
2023-04-16T08:13:02.137Z,8.70
2023-04-16T08:15:29.654Z,9.88
2023-04-16T08:17:56.685Z,8.68
2023-04-16T08:20:23.718Z,8.68
2023-04-16T08:22:50.612Z,8.60
2023-04-16T08:25:17.598Z,8.75
2023-04-16T08:27:44.507Z,8.65
2023-04-16T08:30:11.507Z,8.93
2023-04-16T08:32:38.569Z,10.05
2023-04-16T08:35:06.206Z,8.75
2023-04-16T08:37:33.092Z,9.63
2023-04-16T08:40:01.191Z,8.57
2023-04-16T08:42:45.449Z,9.02
2023-04-16T08:45:19.702Z,9.07
2023-04-16T08:47:48.176Z,9.68
2023-04-16T08:50:23.290Z,8.83
2023-04-16T08:53:11.268Z,9.60
2023-04-16T08:55:40.616Z,8.55
2023-04-16T09:00:46.646Z,9.18
2023-04-16T09:03:13.802Z,8.73
2023-04-16T09:05:41.165Z,9.40
2023-04-16T09:08:08.205Z,9.63
2023-04-16T09:10:35.196Z,10.00
2023-04-16T09:13:02.210Z,9.18
2023-04-16T09:15:29.798Z,8.75
2023-04-16T09:17:57.925Z,10.15
2023-04-16T09:20:25.092Z,9.32
2023-04-16T09:22:51.945Z,8.73
2023-04-16T09:25:20.991Z,8.93
2023-04-16T09:27:50.175Z,9.73
2023-04-16T09:30:27.925Z,8.18
2023-04-16T09:33:22.810Z,9.27
2023-04-16T09:35:52.097Z,8.23
2023-04-16T09:38:20.078Z,7.38
2023-04-16T09:40:49.827Z,7.93
2023-04-16T09:43:18.327Z,7.43
2023-04-16T09:45:52.310Z,8.30
2023-04-16T09:48:32.618Z,8.50
2023-04-16T09:51:00.780Z,8.55
2023-04-16T09:53:31.410Z,7.82
2023-04-16T09:56:06.307Z,8.27
2023-04-16T09:58:33.521Z,8.68
2023-04-16T10:01:10.769Z,9.63
2023-04-16T10:03:40.038Z,7.38
2023-04-16T10:06:21.308Z,7.53
2023-04-16T10:08:50.229Z,6.25
2023-04-16T10:13:44.754Z,7.30
2023-04-16T10:16:11.829Z,7.43
2023-04-16T10:18:42.715Z,6.90
2023-04-16T10:21:12.277Z,8.30
2023-04-16T10:23:42.964Z,6.68
2023-04-16T10:26:09.962Z,6.60
2023-04-16T10:28:37.242Z,7.47
2023-04-16T10:31:06.176Z,7.68
2023-04-16T10:33:35.053Z,8.90
2023-04-16T10:36:15.674Z,8.80
2023-04-16T10:38:46.798Z,7.05
2023-04-16T10:41:14.077Z,8.95
2023-04-16T10:43:48.016Z,7.75
2023-04-16T10:46:31.083Z,7.90
2023-04-16T10:49:01.332Z,8.75
2023-04-16T10:51:31.926Z,8.48
2023-04-16T10:54:23.450Z,8.05
2023-04-16T10:56:50.892Z,7.20
2023-04-16T10:59:21.913Z,7.53
2023-04-16T11:01:56.882Z,8.00
2023-04-16T11:04:24.034Z,7.97
2023-04-16T11:07:15.637Z,8.35
2023-04-16T11:10:04.401Z,7.75
2023-04-16T11:12:35.141Z,8.10
2023-04-16T11:15:06.505Z,6.85
2023-04-16T11:17:40.610Z,7.53
2023-04-16T11:20:18.977Z,7.45
2023-04-16T11:22:48.321Z,7.88
2023-04-16T11:25:30.155Z,7.80
2023-04-16T11:27:59.373Z,7.03
2023-04-16T11:30:37.005Z,8.48
2023-04-16T11:33:12.930Z,8.30
2023-04-16T11:35:39.943Z,7.15
2023-04-16T11:38:07.815Z,7.85
2023-04-16T11:40:35.040Z,8.82
2023-04-16T11:43:17.547Z,8.05
2023-04-16T11:46:00.660Z,9.20
2023-04-16T11:48:48.106Z,8.40
2023-04-16T11:51:15.308Z,8.70
2023-04-16T11:53:53.316Z,8.20
2023-04-16T11:56:31.320Z,7.77
2023-04-16T11:59:09.039Z,8.43
2023-04-16T12:01:37.075Z,8.20
2023-04-16T12:04:04.498Z,7.68
2023-04-16T12:06:33.235Z,8.68
2023-04-16T12:09:25.854Z,8.23
2023-04-16T12:11:53.321Z,7.18
2023-04-16T12:14:20.547Z,8.30
2023-04-16T12:17:50.976Z,7.32
2023-04-16T12:20:17.812Z,9.50
2023-04-16T12:22:49.803Z,8.43
2023-04-16T12:25:18.397Z,8.82
2023-04-16T12:27:53.411Z,8.77
2023-04-16T12:30:22.814Z,8.73
2023-04-16T12:33:14.968Z,8.48
2023-04-16T12:35:43.665Z,9.23
2023-04-16T12:38:10.889Z,9.13
2023-04-16T12:40:38.768Z,8.48
2023-04-16T12:43:05.681Z,8.68
2023-04-16T12:45:32.584Z,8.60
2023-04-16T12:47:59.660Z,9.25
2023-04-16T12:50:26.596Z,9.82
2023-04-16T12:52:53.481Z,9.27
2023-04-16T12:55:20.350Z,8.80
2023-04-16T12:57:49.206Z,8.82
2023-04-16T13:00:16.484Z,9.73
2023-04-16T13:02:43.421Z,9.55
2023-04-16T13:05:10.552Z,8.68
2023-04-16T13:07:37.634Z,8.95
2023-04-16T13:10:05.818Z,9.10
2023-04-16T13:12:32.997Z,10.77
2023-04-16T13:14:59.964Z,10.43
2023-04-16T13:17:26.795Z,11.52
2023-04-16T13:19:54.047Z,10.00
2023-04-16T13:22:21.009Z,11.75
2023-04-16T13:24:48.050Z,11.65
2023-04-16T13:27:16.518Z,12.20
2023-04-16T13:29:43.537Z,13.20
2023-04-16T13:32:10.507Z,11.88
2023-04-16T13:34:37.401Z,10.70
2023-04-16T13:37:04.852Z,11.25
2023-04-16T13:39:31.671Z,11.23
2023-04-16T13:41:58.640Z,10.55
2023-04-16T13:44:25.793Z,11.57
2023-04-16T13:46:53.157Z,11.32
2023-04-16T13:49:20.414Z,9.90
2023-04-16T13:51:47.333Z,10.50
2023-04-16T13:54:14.235Z,11.05
2023-04-16T13:56:41.088Z,11.38
2023-04-16T13:59:08.491Z,11.52
2023-04-16T14:01:36.073Z,10.57
2023-04-16T14:04:06.782Z,11.45
2023-04-16T14:06:34.737Z,11.90
2023-04-16T14:09:02.209Z,11.70
2023-04-16T14:11:29.177Z,10.73
2023-04-16T14:13:56.084Z,11.65
2023-04-16T14:16:23.357Z,10.95
2023-04-16T14:18:52.152Z,11.52
2023-04-16T14:21:19.465Z,10.73
2023-04-16T14:23:47.102Z,11.60
2023-04-16T14:26:13.998Z,11.80
2023-04-16T14:28:41.339Z,11.45
2023-04-16T14:31:08.329Z,11.85
2023-04-16T14:33:35.188Z,12.00
2023-04-16T14:36:03.338Z,12.50
2023-04-16T14:38:31.463Z,11.43
2023-04-16T14:40:58.540Z,12.00
2023-04-16T14:43:25.562Z,12.65
2023-04-16T14:45:52.952Z,12.30
2023-04-16T14:48:20.056Z,14.02
2023-04-16T14:50:47.113Z,10.63
2023-04-16T14:53:14.019Z,13.05
2023-04-16T14:55:40.915Z,12.48
2023-04-16T14:58:07.799Z,12.75
2023-04-16T15:00:35.757Z,13.55
2023-04-16T15:03:02.813Z,13.40
2023-04-16T15:05:31.042Z,12.88
2023-04-16T15:07:57.995Z,15.63
2023-04-16T15:10:25.001Z,13.55
2023-04-16T15:12:51.857Z,12.98
2023-04-16T15:15:18.923Z,13.90
2023-04-16T15:17:46.044Z,13.57
2023-04-16T15:20:13.281Z,13.43
2023-04-16T15:22:40.472Z,13.93
2023-04-16T15:25:08.267Z,14.23
2023-04-16T15:27:35.223Z,12.13
2023-04-16T15:30:02.222Z,12.82
2023-04-16T15:32:29.349Z,12.68
2023-04-16T15:34:56.366Z,12.48
2023-04-16T15:37:24.175Z,11.00
2023-04-16T15:39:51.138Z,12.55
2023-04-16T15:42:18.363Z,11.43
2023-04-16T15:44:45.674Z,12.40
2023-04-16T15:47:12.598Z,12.15
2023-04-16T15:49:39.662Z,12.07
2023-04-16T15:52:07.147Z,11.73
2023-04-16T15:54:34.166Z,13.02
2023-04-16T15:57:01.957Z,12.68
2023-04-16T15:59:28.896Z,11.77
2023-04-16T16:01:55.964Z,11.75
2023-04-16T16:04:23.391Z,12.07
2023-04-16T16:06:50.509Z,13.43
2023-04-16T16:09:17.472Z,12.30
2023-04-16T16:11:44.490Z,12.02
2023-04-16T16:14:11.646Z,13.35
2023-04-16T16:16:39.855Z,12.32
2023-04-16T16:19:07.034Z,14.95
2023-04-16T16:21:33.979Z,14.35
2023-04-16T16:24:01.635Z,14.07
2023-04-16T16:26:29.225Z,13.50
2023-04-16T16:28:57.343Z,13.82
2023-04-16T16:31:24.773Z,12.73
2023-04-16T16:33:51.895Z,13.30
2023-04-16T16:36:18.900Z,12.32
2023-04-16T16:38:47.890Z,12.82
2023-04-16T16:41:14.903Z,12.68
2023-04-16T16:43:41.934Z,12.40
2023-04-16T16:46:10.008Z,14.15
2023-04-16T16:48:36.991Z,13.07
2023-04-16T16:51:03.987Z,12.70
2023-04-16T16:53:30.884Z,13.48
2023-04-16T16:55:57.727Z,13.98
2023-04-16T16:58:24.684Z,13.10
2023-04-16T17:00:51.704Z,13.38
2023-04-16T17:03:18.871Z,13.60
2023-04-16T17:05:46.225Z,13.75
2023-04-16T17:08:14.019Z,13.63
2023-04-16T17:10:41.037Z,13.27
2023-04-16T17:13:07.884Z,13.88
2023-04-16T17:15:34.910Z,13.30
2023-04-16T17:18:01.900Z,15.05
2023-04-16T17:20:28.948Z,13.18
2023-04-16T17:22:55.983Z,13.63
2023-04-16T17:25:22.928Z,13.77
2023-04-16T17:27:49.773Z,13.63
2023-04-16T17:30:17.217Z,15.10
2023-04-16T17:32:44.184Z,15.20
2023-04-16T17:35:11.554Z,14.20
2023-04-16T17:37:38.644Z,14.32
2023-04-16T17:40:08.006Z,14.35
2023-04-16T17:42:36.410Z,14.98
2023-04-16T17:45:03.713Z,15.25
2023-04-16T17:47:30.620Z,15.07
2023-04-16T17:49:57.539Z,15.00
2023-04-16T17:52:24.407Z,16.50
2023-04-16T17:54:53.332Z,17.48
2023-04-16T17:57:20.358Z,16.38
2023-04-16T17:59:47.383Z,14.95
2023-04-16T18:02:14.355Z,17.42
2023-04-16T18:04:41.499Z,15.30
2023-04-16T18:07:08.592Z,15.80
2023-04-16T18:09:36.151Z,15.40
2023-04-16T18:12:03.198Z,13.88
2023-04-16T18:14:30.080Z,15.25
2023-04-16T18:16:58.626Z,14.85
2023-04-16T18:19:25.580Z,14.87
2023-04-16T18:21:52.434Z,14.95
2023-04-16T18:24:19.502Z,16.17
2023-04-16T18:26:47.189Z,15.90
2023-04-16T18:29:14.686Z,16.20
2023-04-16T18:31:42.544Z,16.58
2023-04-16T18:34:09.937Z,15.30
2023-04-16T18:36:37.178Z,17.23
2023-04-16T18:39:04.093Z,16.80
2023-04-16T18:41:31.493Z,16.08
2023-04-16T18:43:58.940Z,16.30
2023-04-16T18:46:27.014Z,16.42
2023-04-16T18:48:54.290Z,14.93
2023-04-16T18:51:21.592Z,15.40
2023-04-16T18:53:48.623Z,16.65
2023-04-16T18:56:15.592Z,18.30
2023-04-16T18:58:43.355Z,24.17
2023-04-16T19:01:13.183Z,27.10
2023-04-16T19:03:40.159Z,24.58
2023-04-16T19:06:07.307Z,20.90
2023-04-16T19:08:34.198Z,22.30
2023-04-16T19:11:01.144Z,22.35
2023-04-16T19:13:30.648Z,20.95
2023-04-16T19:16:00.001Z,19.77
2023-04-16T19:21:01.105Z,18.13
2023-04-16T19:23:28.323Z,16.38
2023-04-16T19:25:58.426Z,18.45
2023-04-16T19:28:25.836Z,17.27
2023-04-16T19:30:53.562Z,18.20
2023-04-16T19:33:20.621Z,17.17
2023-04-16T19:35:47.626Z,17.60
2023-04-16T19:38:14.549Z,18.05
2023-04-16T19:40:45.947Z,17.75
2023-04-16T19:43:13.126Z,16.65
2023-04-16T19:45:47.010Z,19.52
2023-04-16T19:48:14.791Z,15.88
2023-04-16T19:50:42.824Z,16.15
2023-04-16T19:53:10.490Z,16.58
2023-04-16T19:55:40.143Z,15.85
2023-04-16T19:58:07.649Z,15.90
2023-04-16T20:00:36.435Z,20.02
2023-04-16T20:03:03.693Z,16.10
2023-04-16T20:05:30.942Z,16.38
2023-04-16T20:07:57.877Z,17.80
2023-04-16T20:10:24.894Z,15.38
2023-04-16T20:12:51.912Z,15.50
2023-04-16T20:15:18.931Z,15.98
2023-04-16T20:17:46.320Z,16.05
2023-04-16T20:20:16.059Z,17.00
2023-04-16T20:22:43.555Z,18.63
2023-04-16T20:25:10.605Z,19.42
2023-04-16T20:27:37.662Z,17.77
2023-04-16T20:30:06.345Z,18.27
2023-04-16T20:32:33.434Z,18.17
2023-04-16T20:35:00.432Z,18.75
2023-04-16T20:37:29.267Z,19.10
2023-04-16T20:39:56.565Z,18.95
2023-04-16T20:42:23.654Z,20.73
2023-04-16T20:44:56.020Z,20.40
2023-04-16T20:47:23.123Z,19.65
2023-04-16T20:49:51.194Z,18.15
2023-04-16T20:52:18.292Z,17.83
2023-04-16T20:54:45.152Z,18.75
2023-04-16T20:57:12.258Z,17.15
2023-04-16T20:59:39.148Z,18.25
2023-04-16T21:02:06.358Z,17.85
2023-04-16T21:04:33.447Z,19.65
2023-04-16T21:07:03.545Z,19.77
2023-04-16T21:09:31.351Z,19.17
2023-04-16T21:11:58.439Z,19.55
2023-04-16T21:14:25.357Z,20.52
2023-04-16T21:16:52.356Z,18.60
2023-04-16T21:19:19.304Z,18.08
2023-04-16T21:21:47.027Z,19.98
2023-04-16T21:24:14.005Z,18.45
2023-04-16T21:26:41.085Z,20.00
2023-04-16T21:29:08.046Z,19.95
2023-04-16T21:31:35.032Z,19.58
2023-04-16T21:34:01.961Z,21.38
2023-04-16T21:36:32.113Z,20.92
2023-04-16T21:38:59.197Z,20.02
2023-04-16T21:41:26.799Z,21.10
2023-04-16T21:43:53.764Z,19.27
2023-04-16T21:46:21.274Z,19.02
2023-04-16T21:48:48.889Z,19.83
2023-04-16T21:51:15.935Z,20.67
2023-04-16T21:53:43.077Z,18.25
2023-04-16T21:56:09.955Z,21.75
2023-04-16T21:58:36.928Z,19.80
2023-04-16T22:01:03.818Z,20.23
2023-04-16T22:03:31.325Z,20.73
2023-04-16T22:06:02.259Z,22.17
2023-04-16T22:08:29.791Z,21.65
2023-04-16T22:11:00.336Z,21.63
2023-04-16T22:13:28.115Z,20.13
2023-04-16T22:15:55.067Z,20.27
2023-04-16T22:18:24.535Z,21.30
2023-04-16T22:23:23.936Z,19.30
2023-04-16T22:25:53.360Z,20.90
